createdAt,value
2023-11-30T00:00:02.491Z,-2.44
2023-11-30T00:02:34.235Z,-2.44
2023-11-30T00:05:04.894Z,-2.52
2023-11-30T00:07:35.033Z,-2.50
2023-11-30T00:10:04.415Z,-2.36
2023-11-30T00:12:34.434Z,-2.48
2023-11-30T00:15:03.264Z,-2.48
2023-11-30T00:17:35.387Z,-2.45
2023-11-30T00:20:04.043Z,-2.41
2023-11-30T00:22:34.692Z,-2.44
2023-11-30T00:25:04.238Z,-2.34
2023-11-30T00:27:33.140Z,-2.33
2023-11-30T00:30:01.740Z,-2.37
2023-11-30T00:32:34.999Z,-2.30
2023-11-30T00:35:03.691Z,-2.34
2023-11-30T00:37:35.052Z,-2.34
2023-11-30T00:40:05.200Z,-2.29
2023-11-30T00:42:34.064Z,-2.32
2023-11-30T00:45:02.859Z,-2.20
2023-11-30T00:47:32.987Z,-2.17
2023-11-30T00:50:01.670Z,-2.20
2023-11-30T00:52:34.888Z,-2.10
2023-11-30T00:55:04.557Z,-2.15
2023-11-30T00:57:33.341Z,-2.13
2023-11-30T01:00:02.892Z,-2.09
2023-11-30T01:02:33.647Z,-2.12
2023-11-30T01:05:02.201Z,-2.05
2023-11-30T01:07:32.592Z,-2.10
2023-11-30T01:10:02.632Z,-2.06
2023-11-30T01:12:32.676Z,-2.04
2023-11-30T01:15:02.002Z,-1.98
2023-11-30T01:17:33.861Z,-1.98
2023-11-30T01:20:02.485Z,-2.05
2023-11-30T01:22:33.007Z,-2.03
2023-11-30T01:25:03.948Z,-2.06
2023-11-30T01:27:32.646Z,-2.12
2023-11-30T01:30:01.349Z,-2.18
2023-11-30T01:32:30.690Z,-2.14
2023-11-30T01:34:59.571Z,-2.07
2023-11-30T01:37:28.353Z,-2.19
2023-11-30T01:39:56.984Z,-2.15
2023-11-30T01:42:27.096Z,-2.20
2023-11-30T01:44:55.786Z,-2.23
2023-11-30T01:47:24.723Z,-2.12
2023-11-30T01:49:53.982Z,-2.24
2023-11-30T01:52:22.677Z,-2.26
2023-11-30T01:54:51.603Z,-2.26
2023-11-30T01:57:20.635Z,-2.24
2023-11-30T01:59:50.868Z,-2.22
2023-11-30T02:02:19.748Z,-2.14
2023-11-30T02:04:52.270Z,-2.17
2023-11-30T02:07:21.492Z,-2.12
2023-11-30T02:09:50.131Z,-2.28
2023-11-30T02:12:19.220Z,-2.14
2023-11-30T02:14:48.152Z,-2.07
2023-11-30T02:17:18.306Z,-2.20
2023-11-30T02:19:47.093Z,-2.21
2023-11-30T02:22:18.847Z,-2.25
2023-11-30T02:24:49.001Z,-2.20
2023-11-30T02:27:18.672Z,-2.28
2023-11-30T02:29:47.285Z,-2.38
2023-11-30T02:32:16.810Z,-2.26
2023-11-30T02:34:45.370Z,-2.34
2023-11-30T02:37:14.296Z,-2.37
2023-11-30T02:39:44.425Z,-2.36
2023-11-30T02:42:13.208Z,-2.42
2023-11-30T02:44:42.391Z,-2.34
2023-11-30T02:47:10.927Z,-2.24
2023-11-30T02:49:39.485Z,-2.27
2023-11-30T02:52:08.396Z,-2.20
2023-11-30T02:54:36.997Z,-2.14
2023-11-30T02:57:07.504Z,-2.09
2023-11-30T02:59:36.313Z,-2.02
2023-11-30T03:02:05.679Z,-2.16
2023-11-30T03:04:34.616Z,-1.98
2023-11-30T03:07:03.208Z,-2.05
2023-11-30T03:09:31.979Z,-1.96
2023-11-30T03:12:00.586Z,-1.93
2023-11-30T03:14:30.694Z,-1.91
2023-11-30T03:16:59.670Z,-1.89
2023-11-30T03:19:28.238Z,-1.86
2023-11-30T03:21:56.984Z,-1.84
2023-11-30T03:24:26.052Z,-1.96
2023-11-30T03:26:54.738Z,-1.82
2023-11-30T03:29:23.336Z,-1.71
2023-11-30T03:31:54.256Z,-1.77
2023-11-30T03:34:23.227Z,-1.86
2023-11-30T03:36:52.040Z,-1.81
2023-11-30T03:39:20.766Z,-1.79
2023-11-30T03:41:49.471Z,-1.89
2023-11-30T03:44:18.046Z,-1.77
2023-11-30T03:46:47.006Z,-1.68
2023-11-30T03:49:17.012Z,-1.73
2023-11-30T03:51:45.599Z,-1.71
2023-11-30T03:54:14.596Z,-1.67
2023-11-30T03:56:43.126Z,-1.82
2023-11-30T03:59:12.629Z,-1.75
2023-11-30T04:01:41.206Z,-1.65
2023-11-30T04:04:09.967Z,-1.69
2023-11-30T04:06:40.130Z,-1.83
2023-11-30T04:09:09.935Z,-1.75
2023-11-30T04:11:38.685Z,-1.80
2023-11-30T04:14:08.769Z,-1.69
2023-11-30T04:16:38.620Z,-1.67
2023-11-30T04:19:09.032Z,-1.83
2023-11-30T04:21:37.582Z,-1.83
2023-11-30T04:24:08.214Z,-1.69
2023-11-30T04:26:36.862Z,-1.71
2023-11-30T04:29:05.664Z,-1.77
2023-11-30T04:31:34.357Z,-1.60
2023-11-30T04:34:03.001Z,-1.72
2023-11-30T04:36:31.953Z,-1.67
2023-11-30T04:39:01.263Z,-1.61
2023-11-30T04:41:31.291Z,-1.51
2023-11-30T04:43:59.891Z,-1.53
2023-11-30T04:46:29.040Z,-1.65
2023-11-30T04:48:57.881Z,-1.53
2023-11-30T04:51:27.094Z,-1.55
2023-11-30T04:53:55.759Z,-1.49
2023-11-30T04:56:24.905Z,-1.59
2023-11-30T04:58:54.963Z,-1.53
2023-11-30T05:01:23.551Z,-1.40
2023-11-30T05:03:52.519Z,-1.41
2023-11-30T05:06:21.323Z,-1.37
2023-11-30T05:08:50.195Z,-1.35
2023-11-30T05:11:19.037Z,-1.32
2023-11-30T05:13:47.613Z,-1.35
2023-11-30T05:16:17.585Z,-1.40
2023-11-30T05:18:46.118Z,-1.34
2023-11-30T05:21:14.970Z,-1.18
2023-11-30T05:23:43.554Z,-1.26
2023-11-30T05:26:12.193Z,-1.21
2023-11-30T05:28:41.015Z,-1.24
2023-11-30T05:31:10.110Z,-1.16
2023-11-30T05:33:40.576Z,-1.16
2023-11-30T05:36:10.486Z,-1.16
2023-11-30T05:38:39.064Z,-1.12
2023-11-30T05:41:07.998Z,-1.09
2023-11-30T05:43:38.201Z,-1.01
2023-11-30T05:46:07.671Z,-1.00
2023-11-30T05:48:36.343Z,-1.00
2023-11-30T05:51:07.008Z,-0.94
2023-11-30T05:53:35.599Z,-0.94
2023-11-30T05:56:04.183Z,-0.90
2023-11-30T05:58:33.580Z,-0.89
2023-11-30T06:01:03.061Z,-0.87
2023-11-30T06:03:32.062Z,-0.84
2023-11-30T06:06:00.823Z,-0.90
2023-11-30T06:08:30.794Z,-0.85
2023-11-30T06:11:00.021Z,-0.91
2023-11-30T06:13:28.582Z,-0.88
2023-11-30T06:15:57.305Z,-0.82
2023-11-30T06:18:26.217Z,-0.83
2023-11-30T06:20:55.099Z,-0.85
2023-11-30T06:23:23.807Z,-0.84
2023-11-30T06:25:53.762Z,-0.85
2023-11-30T06:28:22.463Z,-0.82
2023-11-30T06:30:51.003Z,-0.87
2023-11-30T06:33:19.930Z,-0.87
2023-11-30T06:35:48.580Z,-0.74
2023-11-30T06:38:17.947Z,-0.77
2023-11-30T06:40:46.800Z,-0.85
2023-11-30T06:43:17.201Z,-0.73
2023-11-30T06:45:46.150Z,-0.73
2023-11-30T06:48:14.831Z,-0.78
2023-11-30T06:50:43.575Z,-0.66
2023-11-30T06:53:12.392Z,-0.70
2023-11-30T06:55:40.968Z,-0.65
2023-11-30T06:58:09.514Z,-0.67
2023-11-30T07:00:39.600Z,-0.60
2023-11-30T07:03:08.345Z,-0.64
2023-11-30T07:05:37.105Z,-0.57
2023-11-30T07:08:05.984Z,-0.57
2023-11-30T07:10:34.773Z,-0.55
2023-11-30T07:13:03.343Z,-0.50
2023-11-30T07:15:32.421Z,-0.40
2023-11-30T07:18:02.971Z,-0.45
2023-11-30T07:20:31.633Z,-0.56
2023-11-30T07:23:01.177Z,-0.58
2023-11-30T07:25:29.722Z,-0.54
2023-11-30T07:27:58.786Z,-0.45
2023-11-30T07:30:27.388Z,-0.50
2023-11-30T07:32:56.040Z,-0.48
2023-11-30T07:35:27.411Z,-0.57
2023-11-30T07:37:56.412Z,-0.48
2023-11-30T07:40:25.012Z,-0.61
2023-11-30T07:42:53.665Z,-0.75
2023-11-30T07:45:22.445Z,-0.85
2023-11-30T07:47:51.563Z,-0.87
2023-11-30T07:50:21.289Z,-0.91
2023-11-30T07:52:51.217Z,-1.06
2023-11-30T07:55:19.728Z,-1.04
2023-11-30T07:57:48.778Z,-1.12
2023-11-30T08:00:18.230Z,-1.19
2023-11-30T08:02:46.837Z,-1.14
2023-11-30T08:05:16.128Z,-1.08
2023-11-30T08:07:44.722Z,-1.24
2023-11-30T08:10:14.820Z,-1.20
2023-11-30T08:12:43.424Z,-1.12
2023-11-30T08:15:12.433Z,-1.14
2023-11-30T08:17:41.191Z,-1.19
2023-11-30T08:20:15.265Z,-1.25
2023-11-30T08:22:43.972Z,-1.36
2023-11-30T08:25:13.239Z,-1.28
2023-11-30T08:27:49.135Z,-1.25
2023-11-30T08:30:19.936Z,-1.44
2023-11-30T08:32:48.578Z,-1.33
2023-11-30T08:35:17.385Z,-1.37
2023-11-30T08:37:46.216Z,-1.32
2023-11-30T08:40:14.881Z,-1.28
2023-11-30T08:42:44.958Z,-1.22
2023-11-30T08:45:13.803Z,-1.22
2023-11-30T08:47:43.340Z,-1.18
2023-11-30T08:50:13.293Z,-1.32
2023-11-30T08:52:41.853Z,-1.36
2023-11-30T08:55:10.670Z,-1.39
2023-11-30T08:57:42.048Z,-1.36
2023-11-30T09:00:14.557Z,-1.31
2023-11-30T09:02:43.632Z,-1.25
2023-11-30T09:05:13.529Z,-1.15
2023-11-30T09:07:42.299Z,-1.38
2023-11-30T09:10:11.864Z,-1.38
2023-11-30T09:12:40.689Z,-1.32
2023-11-30T09:15:11.637Z,-1.33
2023-11-30T09:17:41.854Z,-1.41
2023-11-30T09:20:11.295Z,-1.42
2023-11-30T09:22:40.861Z,-1.37
2023-11-30T09:25:11.763Z,-1.42
2023-11-30T09:27:40.602Z,-1.40
2023-11-30T09:30:12.046Z,-1.35
2023-11-30T09:32:42.439Z,-1.47
2023-11-30T09:35:12.718Z,-1.53
2023-11-30T09:37:41.486Z,-1.53
2023-11-30T09:40:11.771Z,-1.74
2023-11-30T09:42:40.425Z,-1.78
2023-11-30T09:45:10.552Z,-1.86
2023-11-30T09:47:38.384Z,-1.98
2023-11-30T09:50:09.534Z,-2.07
2023-11-30T09:52:38.868Z,-1.95
2023-11-30T09:55:12.406Z,-1.90
2023-11-30T09:57:41.733Z,-2.05
2023-11-30T10:00:12.487Z,-2.42
2023-11-30T10:02:41.170Z,-2.04
2023-11-30T10:05:11.521Z,-2.07
2023-11-30T10:07:40.606Z,-2.01
2023-11-30T10:10:10.304Z,-1.82
2023-11-30T10:12:38.908Z,-1.74
2023-11-30T10:15:08.533Z,-1.89
2023-11-30T10:17:37.940Z,-1.71
2023-11-30T10:20:12.425Z,-1.85
2023-11-30T10:22:42.752Z,-1.84
2023-11-30T10:25:11.868Z,-1.55
2023-11-30T10:27:40.783Z,-1.59
2023-11-30T10:30:13.031Z,-1.74
2023-11-30T10:32:42.300Z,-1.71
2023-11-30T10:35:16.011Z,-1.61
2023-11-30T10:37:47.999Z,-1.63
2023-11-30T10:40:19.173Z,-1.47
2023-11-30T10:42:50.024Z,-1.47
2023-11-30T10:45:19.187Z,-1.70
2023-11-30T10:47:48.375Z,-2.13
2023-11-30T10:50:16.918Z,-1.79
2023-11-30T10:52:47.598Z,-2.15
2023-11-30T10:55:21.468Z,-2.08
2023-11-30T10:57:50.546Z,-1.86
2023-11-30T11:00:23.658Z,-2.10
2023-11-30T11:02:52.307Z,-2.05
2023-11-30T11:05:22.346Z,-2.04
2023-11-30T11:07:53.776Z,-1.98
2023-11-30T11:10:24.490Z,-2.47
2023-11-30T11:12:54.343Z,-2.41
2023-11-30T11:15:25.828Z,-2.37
2023-11-30T11:17:55.706Z,-2.33
2023-11-30T11:20:26.677Z,-2.38
2023-11-30T11:22:58.772Z,-2.61
2023-11-30T11:25:27.845Z,-2.57
2023-11-30T11:27:57.551Z,-2.59
2023-11-30T11:30:28.196Z,-2.69
2023-11-30T11:33:00.426Z,-2.62
2023-11-30T11:35:29.469Z,-2.74
2023-11-30T11:38:00.332Z,-2.58
2023-11-30T11:40:29.493Z,-2.90
2023-11-30T11:42:58.128Z,-2.79
2023-11-30T11:45:26.834Z,-2.71
2023-11-30T11:47:56.001Z,-2.79
2023-11-30T11:50:24.731Z,-2.94
2023-11-30T11:52:53.340Z,-2.97
2023-11-30T11:55:26.004Z,-3.00
2023-11-30T11:57:55.278Z,-2.91
2023-11-30T12:00:25.804Z,-2.99
2023-11-30T12:03:06.089Z,-2.99
2023-11-30T12:05:34.848Z,-2.93
2023-11-30T12:08:04.413Z,-2.97
2023-11-30T12:10:35.821Z,-3.01
2023-11-30T12:13:04.820Z,-3.14
2023-11-30T12:15:33.892Z,-3.34
2023-11-30T12:18:03.373Z,-3.22
2023-11-30T12:20:32.923Z,-3.47
2023-11-30T12:23:02.236Z,-3.41
2023-11-30T12:25:30.898Z,-3.39
2023-11-30T12:28:00.852Z,-3.44
2023-11-30T12:30:29.447Z,-3.61
2023-11-30T12:32:58.228Z,-3.51
2023-11-30T12:35:27.102Z,-3.64
2023-11-30T12:37:55.956Z,-3.69
2023-11-30T12:40:24.726Z,-3.59
2023-11-30T12:42:53.485Z,-3.51
2023-11-30T12:45:23.824Z,-3.76
2023-11-30T12:47:52.640Z,-3.76
2023-11-30T12:50:21.820Z,-3.73
2023-11-30T12:52:50.547Z,-3.70
2023-11-30T12:55:20.021Z,-3.84
2023-11-30T12:57:49.870Z,-3.78
2023-11-30T13:00:19.823Z,-3.85
2023-11-30T13:02:50.017Z,-4.08
2023-11-30T13:05:18.747Z,-3.90
2023-11-30T13:07:47.583Z,-3.98
2023-11-30T13:10:16.300Z,-4.05
2023-11-30T13:12:45.176Z,-3.93
2023-11-30T13:15:14.381Z,-4.01
2023-11-30T13:17:43.348Z,-3.99
2023-11-30T13:20:15.704Z,-4.10
2023-11-30T13:22:46.295Z,-4.07
2023-11-30T13:25:16.273Z,-4.22
2023-11-30T13:27:47.718Z,-4.27
2023-11-30T13:30:18.771Z,-4.18
2023-11-30T13:32:48.678Z,-4.04
2023-11-30T13:35:19.019Z,-4.08
2023-11-30T13:37:48.550Z,-4.02
2023-11-30T13:40:19.932Z,-4.14
2023-11-30T13:42:48.656Z,-4.20
2023-11-30T13:45:17.325Z,-4.11
2023-11-30T13:47:49.230Z,-4.12
2023-11-30T13:50:26.419Z,-4.01
2023-11-30T13:53:00.979Z,-4.13
2023-11-30T13:55:30.292Z,-4.07
2023-11-30T13:57:59.028Z,-4.02
2023-11-30T14:00:27.889Z,-4.02
2023-11-30T14:02:56.617Z,-4.10
2023-11-30T14:05:26.799Z,-4.04
2023-11-30T14:07:55.662Z,-3.98
2023-11-30T14:10:24.866Z,-4.07
2023-11-30T14:12:53.641Z,-4.23
2023-11-30T14:15:22.417Z,-4.28
2023-11-30T14:17:52.032Z,-4.19
2023-11-30T14:20:21.423Z,-4.14
2023-11-30T14:22:51.457Z,-4.26
2023-11-30T14:25:22.714Z,-4.16
2023-11-30T14:27:51.506Z,-4.33
2023-11-30T14:30:20.306Z,-4.46
2023-11-30T14:32:49.063Z,-4.32
2023-11-30T14:35:17.809Z,-4.25
2023-11-30T14:37:46.668Z,-4.27
2023-11-30T14:40:16.623Z,-4.28
2023-11-30T14:42:46.138Z,-4.30
2023-11-30T14:45:14.945Z,-4.29
2023-11-30T14:47:45.342Z,-4.42
2023-11-30T14:50:16.634Z,-4.36
2023-11-30T14:52:46.717Z,-4.32
2023-11-30T14:55:16.987Z,-4.31
2023-11-30T14:57:46.055Z,-4.24
2023-11-30T15:00:18.490Z,-4.20
2023-11-30T15:02:47.274Z,-4.20
2023-11-30T15:05:16.428Z,-4.26
2023-11-30T15:07:45.286Z,-4.38
2023-11-30T15:10:14.883Z,-4.32
2023-11-30T15:12:45.698Z,-4.24
2023-11-30T15:15:16.543Z,-4.31
2023-11-30T15:17:46.461Z,-4.22
2023-11-30T15:20:16.162Z,-4.24
2023-11-30T15:22:45.363Z,-4.25
2023-11-30T15:25:18.567Z,-4.39
2023-11-30T15:27:50.851Z,-4.30
2023-11-30T15:30:20.168Z,-4.26
2023-11-30T15:32:48.933Z,-4.17
2023-11-30T15:35:17.855Z,-4.23
2023-11-30T15:37:50.713Z,-4.31
2023-11-30T15:40:22.543Z,-4.43
2023-11-30T15:42:52.928Z,-4.38
2023-11-30T15:45:23.871Z,-4.35
2023-11-30T15:47:53.019Z,-4.36
2023-11-30T15:50:22.016Z,-4.54
2023-11-30T15:52:52.557Z,-4.38
2023-11-30T15:55:21.122Z,-4.26
2023-11-30T15:57:49.944Z,-4.50
2023-11-30T16:00:21.745Z,-4.46
2023-11-30T16:02:50.839Z,-4.42
2023-11-30T16:05:19.706Z,-4.22
2023-11-30T16:07:48.366Z,-4.24
2023-11-30T16:10:17.133Z,-4.26
2023-11-30T16:12:49.068Z,-4.35
2023-11-30T16:15:17.789Z,-4.53
2023-11-30T16:17:48.986Z,-4.47
2023-11-30T16:20:17.652Z,-4.31
2023-11-30T16:22:46.350Z,-4.48
2023-11-30T16:25:15.579Z,-4.79
2023-11-30T16:27:44.484Z,-4.62
2023-11-30T16:30:14.540Z,-4.63
2023-11-30T16:32:43.273Z,-4.65
2023-11-30T16:35:13.495Z,-4.74
2023-11-30T16:37:42.508Z,-4.73
2023-11-30T16:40:12.203Z,-4.74
2023-11-30T16:42:41.159Z,-4.59
2023-11-30T16:45:10.365Z,-4.65
2023-11-30T16:47:40.412Z,-4.74
2023-11-30T16:50:14.756Z,-4.68
2023-11-30T16:52:48.917Z,-4.62
2023-11-30T16:55:17.758Z,-4.67
2023-11-30T16:57:47.833Z,-4.83
2023-11-30T17:00:17.983Z,-4.64
2023-11-30T17:02:46.779Z,-4.61
2023-11-30T17:05:15.610Z,-4.84
2023-11-30T17:07:46.375Z,-4.81
2023-11-30T17:10:14.922Z,-4.87
2023-11-30T17:12:44.036Z,-4.74
2023-11-30T17:15:12.704Z,-4.82
2023-11-30T17:17:46.234Z,-4.91
2023-11-30T17:20:15.026Z,-4.96
2023-11-30T17:22:45.147Z,-4.97
2023-11-30T17:25:15.651Z,-5.04
2023-11-30T17:27:44.363Z,-4.96
2023-11-30T17:30:13.689Z,-4.94
2023-11-30T17:32:42.765Z,-4.92
2023-11-30T17:35:11.965Z,-4.96
2023-11-30T17:37:40.972Z,-5.08
2023-11-30T17:40:12.087Z,-5.17
2023-11-30T17:42:42.219Z,-5.03
2023-11-30T17:45:14.606Z,-4.95
2023-11-30T17:47:43.548Z,-4.82
2023-11-30T17:50:12.598Z,-4.95
2023-11-30T17:52:41.205Z,-5.04
2023-11-30T17:55:10.648Z,-4.96
2023-11-30T17:57:39.401Z,-4.88
2023-11-30T18:00:11.608Z,-4.94
2023-11-30T18:02:43.206Z,-5.08
2023-11-30T18:05:11.930Z,-5.10
2023-11-30T18:07:40.591Z,-5.00
2023-11-30T18:10:10.663Z,-4.93
2023-11-30T18:12:39.636Z,-4.98
2023-11-30T18:15:11.158Z,-4.98
2023-11-30T18:17:40.273Z,-4.96
2023-11-30T18:20:27.314Z,-5.03
2023-11-30T18:22:55.954Z,-5.06
2023-11-30T18:25:24.554Z,-5.02
2023-11-30T18:27:53.189Z,-4.93
2023-11-30T18:30:23.185Z,-5.01
2023-11-30T18:32:51.966Z,-4.98
2023-11-30T18:35:20.629Z,-5.07
2023-11-30T18:37:49.822Z,-4.92
2023-11-30T18:40:18.648Z,-5.02
2023-11-30T18:42:49.993Z,-4.98
2023-11-30T18:45:18.627Z,-5.04
2023-11-30T18:47:48.948Z,-5.08
2023-11-30T18:50:17.848Z,-5.15
2023-11-30T18:52:46.788Z,-5.01
2023-11-30T18:55:15.696Z,-5.05
2023-11-30T18:57:44.329Z,-5.13
2023-11-30T19:00:14.971Z,-5.28
2023-11-30T19:02:43.839Z,-5.20
2023-11-30T19:05:19.101Z,-5.18
2023-11-30T19:07:47.843Z,-5.24
2023-11-30T19:10:17.829Z,-5.09
2023-11-30T19:12:47.605Z,-5.16
2023-11-30T19:15:16.751Z,-5.19
2023-11-30T19:17:49.442Z,-5.14
2023-11-30T19:20:20.033Z,-5.17
2023-11-30T19:22:50.674Z,-5.30
2023-11-30T19:25:19.429Z,-5.26
2023-11-30T19:27:53.082Z,-5.15
2023-11-30T19:30:22.555Z,-5.24
2023-11-30T19:32:51.914Z,-5.20
2023-11-30T19:35:22.536Z,-5.30
2023-11-30T19:37:51.264Z,-5.24
2023-11-30T19:40:20.256Z,-5.21
2023-11-30T19:42:50.565Z,-5.30
2023-11-30T19:45:19.873Z,-5.31
2023-11-30T19:47:48.807Z,-5.24
2023-11-30T19:50:17.757Z,-5.20
2023-11-30T19:52:48.820Z,-5.24
2023-11-30T19:55:17.850Z,-5.27
2023-11-30T19:57:47.252Z,-5.22
2023-11-30T20:00:16.507Z,-5.49
2023-11-30T20:02:45.577Z,-5.40
2023-11-30T20:05:22.874Z,-5.37
2023-11-30T20:07:53.233Z,-5.33
2023-11-30T20:10:22.149Z,-5.26
2023-11-30T20:12:53.681Z,-5.36
2023-11-30T20:15:23.957Z,-5.42
2023-11-30T20:17:53.210Z,-5.50
2023-11-30T20:20:22.350Z,-5.40
2023-11-30T20:22:53.207Z,-5.40
2023-11-30T20:25:22.089Z,-5.46
2023-11-30T20:27:52.164Z,-5.44
2023-11-30T20:30:20.999Z,-5.45
2023-11-30T20:32:50.083Z,-5.38
2023-11-30T20:35:21.539Z,-5.32
2023-11-30T20:37:50.714Z,-5.39
2023-11-30T20:40:20.900Z,-5.28
2023-11-30T20:42:50.779Z,-5.31
2023-11-30T20:45:19.620Z,-5.41
2023-11-30T20:47:48.239Z,-5.26
2023-11-30T20:50:16.980Z,-5.21
2023-11-30T20:52:45.593Z,-5.17
2023-11-30T20:55:15.817Z,-5.19
2023-11-30T20:57:47.011Z,-5.21
2023-11-30T21:00:16.092Z,-5.27
2023-11-30T21:02:44.866Z,-5.27
2023-11-30T21:05:13.589Z,-5.26
2023-11-30T21:07:42.220Z,-5.14
2023-11-30T21:10:13.875Z,-5.20
2023-11-30T21:12:43.886Z,-5.22
2023-11-30T21:15:14.220Z,-5.25
2023-11-30T21:17:42.967Z,-5.24
2023-11-30T21:20:11.840Z,-5.22
2023-11-30T21:22:43.457Z,-5.29
2023-11-30T21:25:12.202Z,-5.26
2023-11-30T21:27:41.130Z,-5.32
2023-11-30T21:30:10.786Z,-5.31
2023-11-30T21:32:40.809Z,-5.26
2023-11-30T21:35:10.104Z,-5.36
2023-11-30T21:37:38.796Z,-5.29
2023-11-30T21:40:08.685Z,-5.19
2023-11-30T21:42:37.585Z,-5.16
2023-11-30T21:45:06.978Z,-5.17
2023-11-30T21:47:36.578Z,-5.30
2023-11-30T21:50:19.085Z,-5.29
2023-11-30T21:52:48.291Z,-5.31
2023-11-30T21:55:17.717Z,-5.29
2023-11-30T21:57:47.776Z,-5.31
2023-11-30T22:00:17.920Z,-5.35
2023-11-30T22:02:47.584Z,-5.23
2023-11-30T22:05:26.761Z,-5.29
2023-11-30T22:08:01.233Z,-5.42
2023-11-30T22:10:29.707Z,-5.45
2023-11-30T22:12:58.569Z,-5.26
2023-11-30T22:15:27.377Z,-5.34
2023-11-30T22:17:57.781Z,-5.34
2023-11-30T22:20:27.952Z,-5.27
2023-11-30T22:22:56.657Z,-5.32
2023-11-30T22:25:25.321Z,-5.46
2023-11-30T22:27:54.006Z,-5.41
2023-11-30T22:30:22.563Z,-5.40
2023-11-30T22:32:51.083Z,-5.41
2023-11-30T22:35:19.872Z,-5.42
2023-11-30T22:37:51.283Z,-5.29
2023-11-30T22:40:20.368Z,-5.36
2023-11-30T22:42:49.038Z,-5.35
2023-11-30T22:45:17.705Z,-5.46
2023-11-30T22:47:46.474Z,-5.52
2023-11-30T22:50:15.441Z,-5.52
2023-11-30T22:52:44.687Z,-5.42
2023-11-30T22:55:15.150Z,-5.52
2023-11-30T22:57:44.158Z,-5.44
2023-11-30T23:00:21.143Z,-5.46
2023-11-30T23:02:53.549Z,-5.55
2023-11-30T23:05:25.764Z,-5.47
2023-11-30T23:07:57.966Z,-5.47
2023-11-30T23:10:28.369Z,-5.37
2023-11-30T23:13:01.264Z,-5.54
2023-11-30T23:15:30.561Z,-5.45
2023-11-30T23:18:02.764Z,-5.45
2023-11-30T23:20:45.955Z,-5.44
2023-11-30T23:23:23.800Z,-5.61
2023-11-30T23:25:57.635Z,-5.46
2023-11-30T23:28:27.592Z,-5.41
2023-11-30T23:30:59.151Z,-5.56
2023-11-30T23:33:27.895Z,-5.52
2023-11-30T23:35:59.600Z,-5.51
2023-11-30T23:38:28.400Z,-5.58
2023-11-30T23:41:02.369Z,-5.52
2023-11-30T23:43:34.104Z,-5.51
2023-11-30T23:46:10.149Z,-5.49
2023-11-30T23:48:41.805Z,-5.54
2023-11-30T23:51:13.412Z,-5.57
2023-11-30T23:53:42.517Z,-5.46
2023-11-30T23:56:15.692Z,-5.56
2023-11-30T23:58:51.500Z,-5.55
